EW9427 Weather Reports


Display with metric or nautical units.
time (UTC)temp
F
wind
direction
speed
MPH
gust
MPH
rain 1hr
in
rain 24hr
in
rain mn
in
humidity
%
barometer
mb
20220705154545 65 209 3.0 7.0 0.00 0.02 0.01 75 1016.6
20220705153041 64 276 0.0 6.0 0.00 0.02 0.01 79 1016.7
20220705151539 63 233 2.0 6.0 0.00 0.02 0.01 80 1016.7
20220705150036 62 223 5.0 8.0 0.00 0.02 0.01 82 1016.8
20220705144536 61 207 5.0 9.0 0.00 0.02 0.01 86 1016.8
20220705143031 60 201 5.0 8.0 0.00 0.02 0.01 87 1016.7
20220705141525 59 207 5.0 8.0 0.00 0.02 0.01 88 1016.7
20220705140033 59 214 6.0 9.0 0.00 0.02 0.01 87 1016.7
20220705134520 59 228 4.0 7.0 0.00 0.02 0.01 88 1016.7
20220705133018 59 272 0.0 0.0 0.00 0.02 0.01 87 1016.5
20220705131514 55 272 0.0 2.0 0.00 0.02 0.01 92 1016.5
20220705130010 54 272 0.0 0.0 0.00 0.02 0.01 93 1016.5
20220705124507 52 272 0.0 3.0 0.00 0.02 0.01 93 1016.5
20220705123004 51 321 1.0 5.0 0.00 0.02 0.01 93 1016.5
20220705121600 50 321 0.0 2.0 0.00 0.02 0.01 93 1016.3
20220705120058 50 321 0.0 0.0 0.00 0.02 0.01 93 1016.3
20220705114551 49 321 0.0 0.0 0.00 0.02 0.01 92 1016.2
20220705113049 50 355 2.0 4.0 0.00 0.02 0.01 92 1016.2
20220705111545 51 355 0.0 0.0 0.00 0.02 0.01 92 1016.1
20220705110043 52 355 0.0 0.0 0.00 0.02 0.01 92 1016.2
20220705104541 52 355 0.0 0.0 0.00 0.02 0.01 93 1016.3
20220705103039 53 360 0.0 2.0 0.00 0.02 0.01 93 1016.3
20220705101538 53 360 0.0 0.0 0.00 0.02 0.01 93 1016.3
20220705100036 54 5 0.0 2.0 0.01 0.02 0.01 93 1016.2
20220705094535 54 360 0.0 2.0 0.01 0.02 0.01 94 1016.3
20220705093040 55 360 0.0 0.0 0.01 0.02 0.01 94 1016.4
20220705091539 54 5 0.0 0.0 0.01 0.02 0.01 93 1016.4
20220705090034 55 360 0.0 0.0 0.00 0.01 0.00 93 1016.5
20220705084540 55 360 0.0 0.0 0.00 0.01 0.00 93 1016.7
20220705083036 55 5 0.0 2.0 0.00 0.01 0.00 93 1016.6
20220705081633 55 5 0.0 3.0 0.00 0.01 0.00 93 1016.4
20220705080030 53 315 2.0 3.0 0.00 0.01 0.00 90 1016.1
20220705074529 55 309 0.0 0.0 0.00 0.01 0.00 90 1016.5
20220705073024 55 309 0.0 0.0 0.00 0.01 0.00 88 1016.6
20220705071521 56 309 0.0 2.0 0.00 0.01 0.00 89 1016.8
20220705070022 57 309 0.0 2.0 0.00 0.01 0.00 90 1016.7
20220705064516 58 309 0.0 0.0 0.00 0.01 0.00 90 1016.9
20220705063014 58 309 0.0 2.0 0.01 0.01 0.00 90 1016.9
20220705061513 58 309 2.0 5.0 0.01 0.01 0.00 90 1016.8
20220705060010 58 305 3.0 8.0 0.01 0.01 0.00 90 1016.7
20220705054510 59 327 5.0 10.0 0.01 0.01 0.01 88 1016.3
20220705053009 59 328 2.0 6.0 0.00 0.00 0.00 86 1016.6
20220705051507 60 340 4.0 8.0 0.00 0.00 0.00 84 1016.4
20220705050003 60 311 1.0 6.0 0.00 0.00 0.00 83 1016.3
20220705044503 61 296 3.0 8.0 0.00 0.00 0.00 86 1016.1
20220705043003 61 94 2.0 7.0 0.00 0.00 0.00 84 1016.0
20220705041501 60 88 4.0 7.0 0.00 0.00 0.00 85 1015.2
20220705040101 60 99 4.0 7.0 0.00 0.00 0.00 86 1015.1
20220705034601 61 61 2.0 6.0 0.00 0.00 0.00 85 1015.1
20220705033107 61 61 5.0 7.0 0.00 0.00 0.00 85 1014.7
20220705031604 61 287 2.0 4.0 0.00 0.00 0.00 83 1015.4
20220705030058 61 287 1.0 9.0 0.00 0.00 0.00 82 1015.7
20220705024602 62 284 4.0 13.0 0.00 0.00 0.00 80 1015.9
20220705023107 63 264 6.0 12.0 0.00 0.00 0.00 78 1016.0
20220705021558 64 349 0.0 2.0 0.00 0.00 0.00 80 1015.8
20220705020057 65 349 2.0 5.0 0.00 0.00 0.00 76 1015.5
20220705014550 66 360 5.0 8.0 0.00 0.00 0.00 73 1015.3
20220705013050 66 360 6.0 9.0 0.00 0.00 0.00 70 1015.1
20220705011600 66 350 7.0 10.0 0.00 0.00 0.00 69 1015.1
20220705010048 67 360 5.0 9.0 0.00 0.00 0.00 70 1015.2
20220705004548 67 11 4.0 9.0 0.00 0.00 0.00 69 1014.9
20220705003047 68 46 3.0 6.0 0.00 0.00 0.00 68 1014.9
20220705001546 68 91 4.0 8.0 0.00 0.00 0.00 65 1014.8
20220705000055 68 10 6.0 9.0 0.00 0.00 0.00 65 1014.5
20220704234553 68 33 5.0 10.0 0.00 0.00 0.00 65 1014.5
20220704233045 68 23 6.0 12.0 0.00 0.00 0.00 66 1014.5
20220704231544 68 13 7.0 14.0 0.00 0.00 0.00 66 1014.4
20220704230046 68 14 9.0 13.0 0.00 0.00 0.00 65 1014.4
20220704224544 69 11 10.0 16.0 0.00 0.00 0.00 65 1014.5
20220704223043 68 10 11.0 15.0 0.00 0.00 0.00 65 1014.4
20220704221545 68 21 7.0 15.0 0.00 0.00 0.00 67 1014.4
20220704220042 69 320 4.0 10.0 0.00 0.00 0.00 60 1014.4
20220704214542 69 22 3.0 10.0 0.00 0.00 0.00 63 1014.6
20220704213041 69 15 2.0 6.0 0.00 0.00 0.00 65 1014.6
20220704211542 71 269 0.0 5.0 0.00 0.00 0.00 59 1014.6
20220704210040 70 284 2.0 7.0 0.00 0.00 0.00 61 1014.6
20220704204540 70 279 2.0 10.0 0.00 0.00 0.00 58 1014.6
20220704203038 70 268 2.0 8.0 0.00 0.00 0.00 58 1014.6
20220704201538 69 226 0.0 6.0 0.00 0.00 0.00 61 1014.6
20220704200036 69 269 2.0 7.0 0.00 0.00 0.00 59 1014.7
20220704194536 69 208 6.0 9.0 0.00 0.02 0.00 59 1014.6
20220704193043 69 244 4.0 10.0 0.00 0.02 0.00 59 1014.6
20220704191543 69 232 1.0 7.0 0.00 0.02 0.00 59 1014.6
20220704190035 69 272 2.0 8.0 0.00 0.02 0.00 65 1014.5
20220704184543 67 235 1.0 7.0 0.00 0.07 0.00 61 1014.5
20220704183030 69 247 3.0 7.0 0.00 0.07 0.00 62 1014.5
20220704181533 67 279 2.0 5.0 0.00 0.07 0.00 65 1014.6
20220704180024 66 286 4.0 10.0 0.00 0.07 0.00 66 1014.7
20220704174518 65 284 1.0 9.0 0.00 0.13 0.00 69 1014.7
20220704173017 66 296 3.0 10.0 0.00 0.13 0.00 70 1014.6
20220704171515 65 325 6.0 11.0 0.00 0.13 0.00 72 1014.6
20220704170010 65 335 6.0 11.0 0.00 0.13 0.00 75 1014.6
20220704164506 63 288 5.0 13.0 0.00 0.15 0.00 75 1014.7
20220704163003 62 290 7.0 12.0 0.00 0.15 0.00 77 1014.8
20220704161600 62 315 8.0 11.0 0.00 0.15 0.00 79 1014.9
20220704161501 62 286 8.0 11.0 0.00 0.15 0.00 78 1014.9
20220704160057 60 273 8.0 14.0 0.00 0.15 0.00 83 1015.0